Time;durP1;ratioP1;P1;durP2;ratioP2;P2;SDS_P1;SDS_P2;PMS_P1;PMS_P2;Temp;Humidity;BMP_temperature;BMP_pressure;BME280_temperature;BME280_humidity;BME280_pressure;Samples;Min_cycle;Max_cycle;Signal;HPM_P1;HPM_P2
2021/11/13 00:01:16;;;;;;;0.20;0.20;;;19.80;60.70;;;;;;5050810;28;20036;-63
2021/11/13 00:03:42;;;;;;;0.20;0.20;;;19.70;61.80;;;;;;5050418;28;20039;-68
2021/11/13 00:06:09;;;;;;;1.40;0.20;;;19.70;61.00;;;;;;5051080;28;20040;-70
2021/11/13 00:08:37;;;;;;;3.47;0.80;;;19.60;61.30;;;;;;5034052;28;20574;-70
2021/11/13 00:11:05;;;;;;;1.52;0.40;;;19.50;60.70;;;;;;5050861;28;20035;-64
2021/11/13 00:13:32;;;;;;;0.77;0.35;;;19.50;62.90;;;;;;5049685;28;20108;-69
2021/11/13 00:15:59;;;;;;;0.80;0.30;;;19.60;62.90;;;;;;5032127;28;20037;-72
2021/11/13 00:18:26;;;;;;;1.23;0.55;;;19.60;62.50;;;;;;5050576;28;20021;-74
2021/11/13 00:20:53;;;;;;;1.75;1.00;;;19.70;63.20;;;;;;5050596;28;20067;-75
2021/11/13 00:23:20;;;;;;;0.38;0.38;;;19.60;62.20;;;;;;5049472;28;20039;-67
2021/11/13 00:25:48;;;;;;;0.47;0.10;;;19.70;62.10;;;;;;5038412;28;20510;-69
2021/11/13 00:28:15;;;;;;;0.10;0.10;;;19.80;61.40;;;;;;5049817;28;20017;-67
2021/11/13 00:30:43;;;;;;;0.20;0.20;;;19.50;62.30;;;;;;5051168;28;20021;-70
2021/11/13 00:33:11;;;;;;;0.10;0.10;;;19.30;63.40;;;;;;5050758;28;20021;-69
2021/11/13 00:35:38;;;;;;;0.00;0.00;;;19.20;62.90;;;;;;5048452;28;20033;-68
2021/11/13 00:38:05;;;;;;;0.40;0.40;;;19.40;64.50;;;;;;5049969;28;20041;-70
2021/11/13 00:40:32;;;;;;;0.13;0.10;;;19.50;64.10;;;;;;5045570;28;20033;-70
2021/11/13 00:42:59;;;;;;;0.10;0.10;;;19.80;64.60;;;;;;5048665;28;20107;-70
2021/11/13 00:45:26;;;;;;;2.55;0.30;;;19.70;62.00;;;;;;5047861;28;20025;-70
2021/11/13 00:47:53;;;;;;;3.00;0.20;;;19.50;62.50;;;;;;5048571;28;20029;-68
2021/11/13 00:50:20;;;;;;;0.75;0.13;;;19.50;61.90;;;;;;5046682;28;20052;-69
2021/11/13 00:52:47;;;;;;;0.17;0.17;;;19.20;62.90;;;;;;5049302;28;20028;-69
2021/11/13 00:55:16;;;;;;;0.70;0.20;;;19.40;64.60;;;;;;5047158;28;20044;-67
2021/11/13 00:57:44;;;;;;;1.05;0.28;;;19.70;64.60;;;;;;5048492;28;20036;-70
2021/11/13 01:00:14;;;;;;;0.40;0.40;;;19.70;63.40;;;;;;5048743;28;20112;-69
2021/11/13 01:02:42;;;;;;;0.30;0.10;;;20.10;66.50;;;;;;5049387;28;20037;-73
2021/11/13 01:05:09;;;;;;;0.35;0.15;;;20.60;61.10;;;;;;5047014;28;20530;-73
2021/11/13 01:07:37;;;;;;;0.10;0.10;;;20.80;59.80;;;;;;5030202;28;20063;-72
2021/11/13 01:10:07;;;;;;;0.17;0.08;;;21.10;59.00;;;;;;5049111;28;20052;-70
2021/11/13 01:12:34;;;;;;;3.90;0.38;;;21.00;59.00;;;;;;5049964;28;20021;-72
2021/11/13 01:15:02;;;;;;;1.65;0.30;;;21.00;59.60;;;;;;5048410;28;20033;-72
2021/11/13 01:17:29;;;;;;;1.17;0.20;;;21.20;59.60;;;;;;5047360;28;20179;-67
2021/11/13 01:19:56;;;;;;;0.77;0.10;;;21.70;58.30;;;;;;5048996;28;20112;-69
2021/11/13 01:22:23;;;;;;;0.10;0.10;;;21.50;58.30;;;;;;5036371;28;20395;-69
2021/11/13 01:24:51;;;;;;;0.03;0.03;;;20.70;58.50;;;;;;5049674;28;20032;-65
2021/11/13 01:27:18;;;;;;;0.20;0.20;;;20.40;60.10;;;;;;5045087;28;20131;-67
2021/11/13 01:29:45;;;;;;;0.50;0.50;;;20.40;60.20;;;;;;5050936;28;20338;-71
2021/11/13 01:32:12;;;;;;;0.43;0.20;;;20.60;60.30;;;;;;5032328;28;20108;-67
2021/11/13 01:34:40;;;;;;;0.10;0.10;;;20.50;60.00;;;;;;5049720;28;20159;-69
2021/11/13 01:37:08;;;;;;;1.60;0.20;;;21.00;58.20;;;;;;5050359;28;20025;-70
2021/11/13 01:39:37;;;;;;;0.45;0.13;;;20.60;59.10;;;;;;5049266;28;20029;-69
2021/11/13 01:42:05;;;;;;;0.55;0.20;;;20.70;57.90;;;;;;5050409;28;20021;-67
2021/11/13 01:44:33;;;;;;;0.28;0.17;;;21.00;57.80;;;;;;5050115;28;20116;-67
2021/11/13 01:47:00;;;;;;;0.25;0.20;;;21.20;58.70;;;;;;5048645;28;20021;-65
2021/11/13 01:49:27;;;;;;;0.60;0.43;;;21.40;58.30;;;;;;5049741;28;20454;-73
2021/11/13 01:51:54;;;;;;;0.60;0.52;;;22.00;57.60;;;;;;5049812;28;20804;-63
2021/11/13 01:54:23;;;;;;;5.30;3.72;;;21.90;56.50;;;;;;5031623;28;20052;-69
2021/11/13 01:56:51;;;;;;;3.58;2.35;;;21.80;57.30;;;;;;5047326;28;20510;-74
2021/11/13 01:59:21;;;;;;;3.38;2.67;;;21.40;56.90;;;;;;5049517;28;20035;-66
2021/11/13 02:01:49;;;;;;;1.10;0.65;;;21.30;57.80;;;;;;5049776;28;20025;-73
2021/11/13 02:04:16;;;;;;;3.70;1.77;;;21.20;58.10;;;;;;5048282;28;20210;-67
2021/11/13 02:06:43;;;;;;;4.28;1.50;;;20.90;58.40;;;;;;5049962;28;20784;-66
2021/11/13 02:09:10;;;;;;;1.25;0.90;;;20.70;59.10;;;;;;5047810;28;20033;-71
2021/11/13 02:11:37;;;;;;;2.70;0.98;;;20.90;60.20;;;;;;5048815;28;20017;-72
2021/11/13 02:14:04;;;;;;;1.25;0.75;;;21.00;59.20;;;;;;5049088;28;20415;-71
2021/11/13 02:16:32;;;;;;;2.08;0.75;;;21.20;58.70;;;;;;5047552;28;20025;-68
2021/11/13 02:18:59;;;;;;;1.85;0.38;;;21.00;57.30;;;;;;5050139;28;20239;-71
2021/11/13 02:21:26;;;;;;;2.30;0.40;;;20.90;58.00;;;;;;5049517;28;20028;-69
2021/11/13 02:23:54;;;;;;;0.75;0.20;;;20.90;57.60;;;;;;5048431;28;20037;-69
2021/11/13 02:26:22;;;;;;;1.75;0.30;;;20.90;57.10;;;;;;5047835;28;20036;-66
2021/11/13 02:28:54;;;;;;;0.50;0.22;;;20.80;57.80;;;;;;5048621;28;20050;-68
2021/11/13 02:31:46;;;;;;;1.65;0.13;;;20.40;59.10;;;;;;5049535;28;20394;-69
2021/11/13 02:34:13;;;;;;;0.32;0.13;;;20.50;58.10;;;;;;5030022;28;20060;-69
2021/11/13 02:36:41;;;;;;;0.57;0.10;;;21.10;59.10;;;;;;5047998;28;20025;-71
2021/11/13 02:39:12;;;;;;;0.20;0.20;;;21.00;57.70;;;;;;5053023;28;20116;-71
2021/11/13 02:41:42;;;;;;;0.88;0.10;;;21.00;59.30;;;;;;5052608;28;20047;-71
2021/11/13 02:44:11;;;;;;;1.10;0.20;;;20.90;58.30;;;;;;5052804;28;20360;-67
2021/11/13 02:46:39;;;;;;;1.13;0.20;;;20.90;58.70;;;;;;5051078;28;20361;-69
2021/11/13 02:49:07;;;;;;;2.15;0.30;;;20.80;57.80;;;;;;5053400;28;20098;-66
2021/11/13 02:51:34;;;;;;;1.52;0.20;;;20.50;59.20;;;;;;5052473;28;20063;-71
2021/11/13 02:54:01;;;;;;;0.13;0.10;;;20.60;58.70;;;;;;5056705;28;20052;-69
2021/11/13 02:56:29;;;;;;;0.65;0.10;;;20.60;58.90;;;;;;5060625;28;20028;-67
2021/11/13 02:58:56;;;;;;;0.15;0.15;;;20.50;59.00;;;;;;5036992;28;20032;-69
2021/11/13 03:01:24;;;;;;;3.15;0.30;;;20.50;59.50;;;;;;5058650;28;20036;-71
2021/11/13 03:03:54;;;;;;;0.10;0.10;;;20.70;59.50;;;;;;5034910;28;20040;-69
2021/11/13 03:06:22;;;;;;;1.73;0.17;;;20.80;58.20;;;;;;5061140;28;20061;-70
2021/11/13 03:08:51;;;;;;;3.28;0.63;;;20.60;58.60;;;;;;5062552;28;20025;-70
2021/11/13 03:11:19;;;;;;;0.60;0.20;;;20.50;59.30;;;;;;5035107;28;20433;-70
2021/11/13 03:13:49;;;;;;;1.60;0.30;;;20.50;60.70;;;;;;5057929;28;20021;-68
2021/11/13 03:16:18;;;;;;;0.22;0.15;;;20.60;60.40;;;;;;5059484;28;20283;-70
2021/11/13 03:18:45;;;;;;;0.60;0.20;;;20.40;60.90;;;;;;5060181;28;20024;-66
2021/11/13 03:21:13;;;;;;;0.10;0.10;;;20.60;61.60;;;;;;5057833;28;20033;-69
2021/11/13 03:23:43;;;;;;;0.63;0.10;;;20.60;59.20;;;;;;5060218;28;20080;-67
2021/11/13 03:26:14;;;;;;;0.93;0.20;;;20.40;58.80;;;;;;5061046;28;20067;-70
2021/11/13 03:28:45;;;;;;;0.40;0.10;;;20.30;59.30;;;;;;5062048;28;20083;-67
2021/11/13 03:31:12;;;;;;;0.10;0.10;;;20.30;59.70;;;;;;5060168;28;20035;-67
2021/11/13 03:33:40;;;;;;;0.40;0.30;;;20.10;60.30;;;;;;5052126;28;20037;-68
2021/11/13 03:36:09;;;;;;;0.10;0.10;;;20.00;60.20;;;;;;5062615;28;20111;-69
2021/11/13 03:38:38;;;;;;;0.40;0.10;;;20.30;60.60;;;;;;5061246;28;20715;-69
2021/11/13 03:41:06;;;;;;;0.10;0.10;;;20.40;61.20;;;;;;5055287;28;20067;-69
2021/11/13 03:43:38;;;;;;;0.20;0.10;;;20.30;60.20;;;;;;5062457;28;20029;-69
2021/11/13 03:46:06;;;;;;;0.10;0.10;;;20.30;60.50;;;;;;5038425;28;20047;-70
2021/11/13 03:48:34;;;;;;;1.02;0.20;;;20.40;61.10;;;;;;5059816;28;20078;-67
2021/11/13 03:51:01;;;;;;;0.10;0.10;;;20.60;61.10;;;;;;5062669;28;20119;-68
2021/11/13 03:53:28;;;;;;;0.10;0.10;;;20.80;60.40;;;;;;5059883;28;20124;-68
2021/11/13 03:55:55;;;;;;;0.35;0.10;;;20.80;60.70;;;;;;5051097;28;20036;-69
2021/11/13 03:58:22;;;;;;;0.10;0.10;;;20.80;60.30;;;;;;5049379;28;20029;-68
2021/11/13 04:00:50;;;;;;;0.10;0.10;;;20.80;60.70;;;;;;5032168;28;20043;-71
2021/11/13 04:03:18;;;;;;;0.15;0.10;;;21.00;61.70;;;;;;5049063;28;20072;-71
2021/11/13 04:05:46;;;;;;;0.20;0.20;;;21.20;61.10;;;;;;5049131;28;20025;-70
2021/11/13 04:08:13;;;;;;;0.28;0.28;;;21.50;59.20;;;;;;5032184;28;20095;-70
2021/11/13 04:10:40;;;;;;;0.30;0.20;;;21.40;60.80;;;;;;5050369;28;20096;-69
2021/11/13 04:13:07;;;;;;;0.52;0.43;;;21.30;59.40;;;;;;5050537;28;20017;-70
2021/11/13 04:15:35;;;;;;;0.90;0.52;;;21.40;60.10;;;;;;5050494;28;20109;-72
2021/11/13 04:18:02;;;;;;;1.85;0.10;;;21.40;59.70;;;;;;5047399;28;20083;-68
2021/11/13 04:20:29;;;;;;;0.08;0.08;;;21.50;59.70;;;;;;5050643;28;20102;-69
2021/11/13 04:22:56;;;;;;;0.52;0.10;;;21.50;59.60;;;;;;5049534;28;20041;-69
2021/11/13 04:25:24;;;;;;;0.28;0.10;;;21.60;58.70;;;;;;5050251;28;20434;-68
2021/11/13 04:27:51;;;;;;;0.88;0.30;;;21.30;59.50;;;;;;5049240;28;20098;-68
2021/11/13 04:30:19;;;;;;;0.13;0.10;;;21.30;59.50;;;;;;5049333;28;20394;-69
2021/11/13 04:32:48;;;;;;;0.10;0.10;;;21.20;60.40;;;;;;5049115;28;20025;-69
2021/11/13 04:37:49;;;;;;;0.00;0.00;;;21.40;59.70;;;;;;5049252;28;20037;-65
2021/11/13 04:40:17;;;;;;;0.10;0.10;;;21.20;58.90;;;;;;5050294;28;20024;-68
2021/11/13 04:42:45;;;;;;;0.28;0.20;;;21.20;59.70;;;;;;5047858;28;20538;-69
2021/11/13 04:45:13;;;;;;;0.68;0.25;;;21.30;60.30;;;;;;5049306;28;20118;-71
2021/11/13 04:47:40;;;;;;;0.43;0.20;;;21.50;60.20;;;;;;5047765;28;20025;-68
2021/11/13 04:50:09;;;;;;;0.20;0.10;;;21.60;60.50;;;;;;5050586;28;20028;-69
2021/11/13 04:52:36;;;;;;;0.20;0.20;;;21.80;59.00;;;;;;5050442;28;20035;-69
2021/11/13 04:55:04;;;;;;;0.88;0.20;;;21.80;60.20;;;;;;5057151;28;20245;-69
2021/11/13 04:57:31;;;;;;;0.60;0.20;;;22.20;58.60;;;;;;5058090;28;20115;-70
2021/11/13 04:59:58;;;;;;;1.50;0.17;;;22.10;58.90;;;;;;5059328;28;20551;-69
2021/11/13 05:02:25;;;;;;;0.10;0.10;;;22.30;57.90;;;;;;5058506;28;20025;-69
2021/11/13 05:04:55;;;;;;;0.15;0.13;;;22.10;57.10;;;;;;5055849;28;20024;-69
2021/11/13 05:07:23;;;;;;;1.10;0.50;;;21.70;57.90;;;;;;5056122;28;20395;-69
2021/11/13 05:09:52;;;;;;;3.63;0.32;;;21.50;60.20;;;;;;5034188;28;20562;-69
2021/11/13 05:12:19;;;;;;;0.82;0.55;;;21.50;59.70;;;;;;5055778;28;20059;-71
2021/11/13 05:14:46;;;;;;;0.20;0.10;;;21.40;60.40;;;;;;5032620;28;20115;-71
2021/11/13 05:17:13;;;;;;;0.55;0.30;;;21.30;60.80;;;;;;5056249;28;20333;-69
2021/11/13 05:19:40;;;;;;;0.10;0.10;;;21.40;60.80;;;;;;5056153;28;20029;-69
2021/11/13 05:22:08;;;;;;;0.38;0.25;;;21.10;59.40;;;;;;5057007;28;20028;-67
2021/11/13 05:24:35;;;;;;;0.60;0.30;;;21.20;60.90;;;;;;5053310;28;20032;-68
2021/11/13 05:27:03;;;;;;;0.10;0.10;;;21.30;60.80;;;;;;5055366;28;20034;-66
2021/11/13 05:29:29;;;;;;;0.28;0.20;;;20.90;60.60;;;;;;5053217;28;20035;-68
2021/11/13 05:31:57;;;;;;;0.25;0.10;;;20.70;62.20;;;;;;5056242;28;20035;-67
2021/11/13 05:34:25;;;;;;;0.10;0.10;;;20.80;61.30;;;;;;5056273;28;20031;-68
2021/11/13 05:36:52;;;;;;;0.32;0.10;;;20.90;61.30;;;;;;5055892;28;20131;-67
2021/11/13 05:39:19;;;;;;;0.52;0.20;;;20.80;61.00;;;;;;5054948;28;20163;-70
2021/11/13 05:41:47;;;;;;;1.38;0.20;;;20.70;61.30;;;;;;5056398;28;20503;-68
2021/11/13 05:44:14;;;;;;;0.50;0.20;;;20.80;61.40;;;;;;5055286;28;20028;-70
2021/11/13 05:46:41;;;;;;;0.32;0.13;;;21.10;62.10;;;;;;5055943;28;20713;-66
2021/11/13 05:49:08;;;;;;;0.55;0.10;;;21.10;60.60;;;;;;5056870;28;20491;-69
2021/11/13 05:51:35;;;;;;;0.10;0.10;;;21.10;60.60;;;;;;5054676;28;20052;-67
2021/11/13 05:54:02;;;;;;;1.25;0.22;;;21.20;60.20;;;;;;5050822;28;20033;-68
2021/11/13 05:56:29;;;;;;;1.20;0.00;;;21.70;61.10;;;;;;5047213;28;20028;-67
2021/11/13 05:58:56;;;;;;;0.10;0.10;;;21.80;61.80;;;;;;5047012;28;20029;-67
2021/11/13 06:01:23;;;;;;;0.20;0.20;;;21.40;60.00;;;;;;5030123;28;20085;-66
2021/11/13 06:03:50;;;;;;;0.10;0.10;;;21.00;60.20;;;;;;5049852;28;20127;-69
2021/11/13 06:06:18;;;;;;;0.00;0.00;;;20.80;61.20;;;;;;5033472;28;20790;-67
2021/11/13 06:08:44;;;;;;;0.10;0.10;;;20.70;61.90;;;;;;5032327;28;20035;-68
2021/11/13 06:11:11;;;;;;;0.20;0.20;;;20.70;60.80;;;;;;5050007;28;20020;-68
2021/11/13 06:13:38;;;;;;;0.13;0.13;;;20.60;61.30;;;;;;5051781;28;20025;-66
2021/11/13 06:16:08;;;;;;;0.10;0.10;;;20.70;60.60;;;;;;5050603;28;20029;-69
2021/11/13 06:18:36;;;;;;;0.00;0.00;;;20.60;60.20;;;;;;5052578;28;20888;-66
2021/11/13 06:21:05;;;;;;;0.13;0.10;;;20.50;60.80;;;;;;5052966;28;20029;-69
2021/11/13 06:23:34;;;;;;;0.10;0.10;;;20.40;61.00;;;;;;5054626;28;20024;-68
2021/11/13 06:26:01;;;;;;;0.10;0.10;;;20.30;61.50;;;;;;5053627;28;20514;-70
2021/11/13 06:28:28;;;;;;;0.00;0.00;;;20.50;60.90;;;;;;5053241;28;20028;-65
2021/11/13 06:30:55;;;;;;;1.55;0.57;;;21.70;58.80;;;;;;5052731;28;20071;-70
2021/11/13 06:33:22;;;;;;;0.40;0.25;;;22.60;57.90;;;;;;5053701;28;20032;-66
2021/11/13 06:35:49;;;;;;;0.35;0.30;;;23.50;54.60;;;;;;5051636;28;20056;-65
2021/11/13 06:38:17;;;;;;;0.63;0.20;;;23.50;54.00;;;;;;5053157;28;20044;-68
2021/11/13 06:40:44;;;;;;;0.63;0.28;;;23.50;54.70;;;;;;5035130;28;20102;-68
2021/11/13 06:43:11;;;;;;;0.20;0.20;;;23.70;54.30;;;;;;5053192;28;20024;-65
2021/11/13 06:45:38;;;;;;;1.05;0.40;;;23.10;54.50;;;;;;5053784;28;20024;-65
2021/11/13 06:48:06;;;;;;;0.08;0.08;;;22.90;56.50;;;;;;5053981;28;20028;-65
2021/11/13 06:50:34;;;;;;;0.10;0.10;;;22.50;55.90;;;;;;5054937;28;20044;-64
2021/11/13 06:53:03;;;;;;;2.05;0.20;;;21.80;56.50;;;;;;5063608;22;20027;-68
2021/11/13 06:55:31;;;;;;;0.20;0.10;;;21.30;58.10;;;;;;5071959;28;20075;-68
2021/11/13 06:57:58;;;;;;;0.13;0.10;;;21.70;58.30;;;;;;5075171;28;20024;-68
2021/11/13 07:00:26;;;;;;;1.25;0.10;;;22.30;56.50;;;;;;5074012;28;20019;-69
2021/11/13 07:02:53;;;;;;;0.65;0.20;;;21.90;57.10;;;;;;5074170;28;20028;-68
2021/11/13 07:05:21;;;;;;;1.75;0.20;;;21.70;58.90;;;;;;5073797;28;20028;-65
2021/11/13 07:07:49;;;;;;;0.10;0.10;;;21.50;58.80;;;;;;5074911;28;20027;-70
2021/11/13 07:10:17;;;;;;;0.17;0.17;;;21.00;60.40;;;;;;5076250;28;20078;-67
2021/11/13 07:12:45;;;;;;;0.20;0.17;;;20.80;61.20;;;;;;5074932;28;20020;-65
2021/11/13 07:15:13;;;;;;;0.20;0.20;;;20.60;61.30;;;;;;5073741;28;20036;-65
2021/11/13 07:17:41;;;;;;;0.17;0.17;;;20.30;62.20;;;;;;5073120;28;20028;-70
2021/11/13 07:20:09;;;;;;;1.40;0.17;;;19.90;63.50;;;;;;5075329;28;20081;-68
2021/11/13 07:22:39;;;;;;;0.10;0.10;;;19.90;64.40;;;;;;5076311;28;20584;-70
2021/11/13 07:25:13;;;;;;;0.50;0.20;;;19.80;64.10;;;;;;5072397;28;20483;-65
2021/11/13 07:27:41;;;;;;;0.13;0.13;;;19.60;65.80;;;;;;5074787;28;20016;-69
2021/11/13 07:30:08;;;;;;;0.10;0.10;;;19.50;66.40;;;;;;5075149;28;20421;-70
2021/11/13 07:32:35;;;;;;;0.20;0.20;;;19.40;66.50;;;;;;5075960;28;20027;-70
2021/11/13 07:35:02;;;;;;;0.10;0.10;;;19.40;67.50;;;;;;5073489;28;20946;-68
2021/11/13 07:37:29;;;;;;;0.22;0.20;;;19.30;67.60;;;;;;5072526;28;20029;-69
2021/11/13 07:39:57;;;;;;;0.00;0.00;;;19.30;68.60;;;;;;5073531;28;20103;-66
2021/11/13 07:42:23;;;;;;;0.10;0.10;;;19.30;68.50;;;;;;5073006;28;20043;-66
2021/11/13 07:44:50;;;;;;;0.20;0.13;;;19.30;68.10;;;;;;5075357;28;20031;-67
2021/11/13 07:47:18;;;;;;;1.08;0.20;;;19.20;68.80;;;;;;5075026;28;20020;-69
2021/11/13 07:49:45;;;;;;;0.30;0.20;;;19.20;69.70;;;;;;5074125;28;20021;-67
2021/11/13 07:52:12;;;;;;;0.73;0.25;;;19.20;69.80;;;;;;5073411;28;20023;-65
2021/11/13 07:54:39;;;;;;;0.55;0.20;;;19.10;69.80;;;;;;5073369;28;20072;-66
2021/11/13 07:57:08;;;;;;;0.10;0.10;;;19.10;69.60;;;;;;5072744;28;20062;-69
2021/11/13 07:59:38;;;;;;;0.52;0.40;;;19.00;71.40;;;;;;5071660;28;20056;-66
2021/11/13 08:02:05;;;;;;;1.52;0.93;;;19.00;71.90;;;;;;5072403;28;20043;-67
2021/11/13 08:04:32;;;;;;;1.70;1.25;;;19.00;71.70;;;;;;5073527;28;20143;-68
2021/11/13 08:06:59;;;;;;;1.17;0.75;;;19.00;72.50;;;;;;5073025;28;20028;-66
2021/11/13 08:09:26;;;;;;;3.28;1.90;;;19.00;72.40;;;;;;5073598;28;20032;-69
2021/11/13 08:11:53;;;;;;;0.63;0.45;;;18.90;73.00;;;;;;5071688;28;20023;-67
2021/11/13 08:14:20;;;;;;;2.95;1.50;;;18.80;73.20;;;;;;5072608;28;20123;-67
2021/11/13 08:16:47;;;;;;;4.43;2.22;;;18.80;73.80;;;;;;5070245;28;20120;-65
2021/11/13 08:19:15;;;;;;;4.78;2.60;;;18.70;74.80;;;;;;5073840;28;20059;-67
2021/11/13 08:21:42;;;;;;;0.80;0.50;;;18.70;75.30;;;;;;5072817;28;20020;-65
2021/11/13 08:24:11;;;;;;;0.20;0.20;;;18.60;76.40;;;;;;5072027;28;20078;-68
2021/11/13 08:26:38;;;;;;;1.80;0.40;;;18.60;75.80;;;;;;5071678;28;20021;-66
2021/11/13 08:29:05;;;;;;;0.40;0.40;;;18.50;77.00;;;;;;5072768;28;20935;-66
2021/11/13 08:31:32;;;;;;;0.55;0.38;;;18.50;76.50;;;;;;5071984;28;20065;-68
2021/11/13 08:33:59;;;;;;;2.47;1.98;;;18.60;76.90;;;;;;5073322;28;20026;-69
2021/11/13 08:36:26;;;;;;;0.90;0.63;;;18.40;78.50;;;;;;5071467;28;20390;-68
2021/11/13 08:38:53;;;;;;;9.95;1.35;;;18.30;79.00;;;;;;5053094;28;20028;-66
2021/11/13 08:41:20;;;;;;;5.35;1.00;;;18.40;79.10;;;;;;5071335;28;20024;-66
2021/11/13 08:43:48;;;;;;;2.13;0.70;;;18.30;80.20;;;;;;5070613;28;20122;-65
2021/11/13 08:46:16;;;;;;;7.03;1.30;;;18.20;81.50;;;;;;5071029;28;20024;-65
2021/11/13 08:48:45;;;;;;;8.25;4.80;;;18.20;82.10;;;;;;5071195;28;20021;-67
2021/11/13 08:51:13;;;;;;;1.33;0.70;;;18.20;82.40;;;;;;5068594;28;20548;-65
2021/11/13 08:53:43;;;;;;;1.38;0.68;;;18.10;83.50;;;;;;5069566;28;20499;-68
2021/11/13 08:56:10;;;;;;;0.47;0.25;;;18.10;85.50;;;;;;5068607;28;20119;-68
2021/11/13 08:58:37;;;;;;;0.47;0.47;;;18.10;84.90;;;;;;5067363;28;20033;-67
2021/11/13 09:01:06;;;;;;;1.55;0.28;;;18.10;85.50;;;;;;5068540;28;20045;-70
2021/11/13 09:03:40;;;;;;;1.30;0.50;;;18.20;84.80;;;;;;5069491;28;20529;-65
2021/11/13 09:06:10;;;;;;;4.38;1.55;;;18.10;85.70;;;;;;5069616;28;20447;-68
2021/11/13 09:08:39;;;;;;;3.45;2.15;;;18.10;85.20;;;;;;5069046;28;20020;-67
2021/11/13 09:11:08;;;;;;;3.75;1.17;;;18.00;87.40;;;;;;5069036;28;20093;-67
2021/11/13 09:13:35;;;;;;;0.60;0.60;;;18.00;88.80;;;;;;5069134;28;20024;-65
2021/11/13 09:16:06;;;;;;;4.53;1.65;;;18.00;90.30;;;;;;5069042;28;20155;-68
2021/11/13 09:18:33;;;;;;;2.15;1.23;;;18.00;90.40;;;;;;5070480;28;20533;-66
2021/11/13 09:21:00;;;;;;;2.35;0.65;;;17.80;91.50;;;;;;5071317;28;20061;-68
2021/11/13 09:23:28;;;;;;;0.95;0.60;;;17.70;91.80;;;;;;5069589;28;20050;-67
2021/11/13 09:25:55;;;;;;;1.23;0.80;;;17.60;91.80;;;;;;5068795;28;20380;-66
2021/11/13 09:28:22;;;;;;;2.08;1.30;;;17.60;92.20;;;;;;5070129;28;20016;-69
2021/11/13 09:30:49;;;;;;;0.70;0.35;;;17.50;93.60;;;;;;5071093;28;20020;-69
2021/11/13 09:33:17;;;;;;;1.38;0.30;;;17.60;92.60;;;;;;5069027;28;20031;-66
2021/11/13 09:35:44;;;;;;;3.35;0.60;;;17.50;93.50;;;;;;5070709;28;20366;-69
2021/11/13 09:38:12;;;;;;;0.93;0.30;;;17.50;93.50;;;;;;5070808;28;20036;-68
2021/11/13 09:40:40;;;;;;;0.60;0.40;;;17.40;93.20;;;;;;5069839;28;20020;-68
2021/11/13 09:43:08;;;;;;;1.25;0.13;;;17.40;93.70;;;;;;5069410;28;20188;-67
2021/11/13 09:45:36;;;;;;;1.17;0.40;;;17.60;93.50;;;;;;5050915;28;20394;-68
2021/11/13 09:48:05;;;;;;;1.50;0.30;;;17.50;94.30;;;;;;5068126;28;20690;-67
2021/11/13 09:50:36;;;;;;;5.35;0.55;;;17.50;93.80;;;;;;5069494;28;20056;-68
2021/11/13 09:53:05;;;;;;;5.95;1.02;;;17.50;93.80;;;;;;5068841;28;20024;-68
2021/11/13 09:55:33;;;;;;;6.55;1.02;;;17.50;94.80;;;;;;5069610;28;20027;-70
2021/11/13 09:58:00;;;;;;;4.70;0.43;;;17.50;95.40;;;;;;5069191;28;20138;-66
2021/11/13 10:00:31;;;;;;;3.60;0.40;;;17.50;94.70;;;;;;5068543;28;20026;-66
2021/11/13 10:02:59;;;;;;;3.25;0.47;;;17.40;95.10;;;;;;5069330;28;20032;-66
2021/11/13 10:05:26;;;;;;;2.60;0.30;;;17.40;95.40;;;;;;5069297;28;21266;-67
2021/11/13 10:07:54;;;;;;;0.77;0.30;;;17.60;94.20;;;;;;5051545;28;20020;-69
2021/11/13 10:10:33;;;;;;;4.05;0.60;;;17.60;94.40;;;;;;5069753;28;20028;-67
2021/11/13 10:13:02;;;;;;;1.40;0.63;;;17.60;94.50;;;;;;5069509;28;20047;-68
2021/11/13 10:15:35;;;;;;;0.90;0.30;;;17.40;95.30;;;;;;5069336;28;20028;-70
2021/11/13 10:18:09;;;;;;;3.20;0.38;;;17.40;94.40;;;;;;5049623;28;20028;-69
2021/11/13 10:20:39;;;;;;;2.22;0.47;;;17.50;94.90;;;;;;5068235;28;20584;-66
2021/11/13 10:23:07;;;;;;;2.53;0.73;;;17.40;94.70;;;;;;5069361;28;20047;-69
2021/11/13 10:25:34;;;;;;;0.73;0.40;;;17.40;94.90;;;;;;5068307;28;20042;-69
2021/11/13 10:28:19;;;;;;;1.67;1.27;;;17.40;94.70;;;;;;5069418;28;20281;-70
2021/11/13 10:30:46;;;;;;;0.82;0.40;;;17.40;95.10;;;;;;5069390;28;20056;-66
2021/11/13 10:33:13;;;;;;;5.90;0.98;;;17.50;95.30;;;;;;5068598;28;20024;-67
2021/11/13 10:35:55;;;;;;;3.92;0.40;;;17.50;95.20;;;;;;5069072;28;20152;-70
2021/11/13 10:38:22;;;;;;;0.83;0.40;;;17.60;94.80;;;;;;5069085;28;20510;-68
2021/11/13 10:40:55;;;;;;;4.93;0.52;;;17.40;95.40;;;;;;5070163;28;20267;-66
2021/11/13 10:43:36;;;;;;;5.10;0.93;;;17.40;95.40;;;;;;5070764;28;20111;-67
2021/11/13 10:46:11;;;;;;;3.63;0.63;;;17.50;95.00;;;;;;5069918;28;20063;-66
2021/11/13 10:48:42;;;;;;;11.95;1.17;;;17.50;94.00;;;;;;5068521;28;20081;-66
2021/11/13 10:51:17;;;;;;;14.82;1.23;;;17.50;93.80;;;;;;5068094;28;20461;-68
2021/11/13 10:53:45;;;;;;;7.70;0.60;;;17.60;93.70;;;;;;5068129;28;20041;-67
2021/11/13 10:56:13;;;;;;;17.60;2.50;;;17.60;93.50;;;;;;5068460;28;20398;-68
2021/11/13 10:58:52;;;;;;;19.27;1.65;;;17.50;93.80;;;;;;5069530;28;20029;-70
2021/11/13 11:01:34;;;;;;;9.00;2.08;;;17.50;93.70;;;;;;5073099;28;20081;-65
2021/11/13 11:04:10;;;;;;;15.80;1.73;;;17.50;93.70;;;;;;5074044;28;20946;-69
2021/11/13 11:06:38;;;;;;;13.10;1.27;;;17.40;93.90;;;;;;5075283;28;20025;-68
2021/11/13 11:09:23;;;;;;;11.77;1.65;;;17.50;93.90;;;;;;5075953;28;20666;-65
2021/11/13 11:11:53;;;;;;;1.98;0.30;;;17.30;94.60;;;;;;5076009;28;20023;-66
2021/11/13 11:14:29;;;;;;;26.98;2.20;;;17.40;94.10;;;;;;5075042;28;20044;-65
2021/11/13 11:17:02;;;;;;;20.05;1.48;;;17.40;94.10;;;;;;5072471;28;20466;-67
2021/11/13 11:19:32;;;;;;;16.15;1.80;;;17.40;93.90;;;;;;5073641;28;20021;-68
2021/11/13 11:22:05;;;;;;;25.98;1.92;;;17.30;94.10;;;;;;5073959;28;20027;-68
2021/11/13 11:24:34;;;;;;;13.73;1.40;;;17.40;93.70;;;;;;5073018;28;20031;-70
2021/11/13 11:27:10;;;;;;;12.82;1.35;;;17.20;94.50;;;;;;5052160;28;20024;-69
2021/11/13 11:29:47;;;;;;;12.48;1.48;;;17.20;94.80;;;;;;5052404;28;20479;-68
2021/11/13 11:32:18;;;;;;;8.55;1.15;;;17.30;94.20;;;;;;5055328;28;20036;-66
2021/11/13 11:34:46;;;;;;;8.10;1.48;;;17.20;94.30;;;;;;5033720;28;20017;-70
2021/11/13 11:37:21;;;;;;;11.60;1.08;;;17.20;94.30;;;;;;5050011;28;20373;-68
2021/11/13 11:40:04;;;;;;;19.20;1.50;;;17.10;94.50;;;;;;5059049;28;20494;-65
2021/11/13 11:42:31;;;;;;;6.72;1.08;;;17.20;94.30;;;;;;5060345;28;20025;-67
2021/11/13 11:45:00;;;;;;;2.88;0.40;;;17.20;94.20;;;;;;5052077;28;20016;-65
2021/11/13 11:47:32;;;;;;;0.75;0.20;;;17.20;94.10;;;;;;5051186;28;20032;-66
2021/11/13 11:50:03;;;;;;;0.30;0.10;;;17.10;94.20;;;;;;5053942;28;20016;-69
2021/11/13 11:52:31;;;;;;;0.98;0.25;;;17.10;93.90;;;;;;5059832;28;20281;-67
2021/11/13 11:54:59;;;;;;;0.55;0.30;;;17.10;94.60;;;;;;5051118;28;20045;-68
2021/11/13 11:57:33;;;;;;;4.18;0.40;;;17.00;94.30;;;;;;5051964;28;20032;-68
2021/11/13 12:00:12;;;;;;;0.55;0.43;;;17.00;94.20;;;;;;5053992;28;20017;-66
2021/11/13 12:02:50;;;;;;;1.50;0.50;;;17.00;93.50;;;;;;5048109;28;20750;-67
2021/11/13 12:05:20;;;;;;;0.20;0.20;;;17.10;93.20;;;;;;5051736;28;20029;-68
2021/11/13 12:07:50;;;;;;;0.17;0.17;;;17.10;92.80;;;;;;5050260;28;20037;-69
2021/11/13 12:10:20;;;;;;;0.43;0.30;;;17.10;93.20;;;;;;5053415;28;20017;-66
2021/11/13 12:13:07;;;;;;;0.70;0.20;;;17.00;93.60;;;;;;5052190;28;20150;-69
2021/11/13 12:15:45;;;;;;;0.43;0.20;;;16.90;93.50;;;;;;5052397;28;20067;-67
2021/11/13 12:18:24;;;;;;;0.40;0.30;;;16.90;93.70;;;;;;5045970;28;20115;-66
2021/11/13 12:21:11;;;;;;;0.38;0.20;;;16.90;94.30;;;;;;5053927;28;20396;-69
2021/11/13 12:23:43;;;;;;;0.10;0.10;;;16.80;94.50;;;;;;5055411;28;20379;-67
2021/11/13 12:26:35;;;;;;;0.20;0.10;;;16.90;93.90;;;;;;5049169;28;20145;-67
2021/11/13 12:29:08;;;;;;;0.10;0.10;;;16.90;93.60;;;;;;5047825;28;20017;-66
2021/11/13 12:31:46;;;;;;;0.00;0.00;;;16.80;94.60;;;;;;5055708;28;20037;-66
2021/11/13 12:34:18;;;;;;;0.47;0.40;;;16.80;93.70;;;;;;5050738;28;20416;-68
2021/11/13 12:37:05;;;;;;;0.38;0.30;;;16.60;95.30;;;;;;5049053;28;20089;-70
2021/11/13 12:39:44;;;;;;;1.10;0.10;;;16.60;92.90;;;;;;5050057;28;20025;-68
2021/11/13 12:42:13;;;;;;;0.20;0.20;;;16.50;94.10;;;;;;5055111;28;20039;-67
2021/11/13 12:44:45;;;;;;;0.10;0.10;;;16.40;94.50;;;;;;5050641;28;20025;-69
2021/11/13 12:47:19;;;;;;;0.10;0.10;;;16.40;93.50;;;;;;5048963;28;20025;-67
2021/11/13 12:49:53;;;;;;;0.15;0.15;;;16.40;93.60;;;;;;5050650;28;20448;-67
2021/11/13 12:52:35;;;;;;;0.20;0.15;;;16.40;92.80;;;;;;5052939;28;20398;-67
2021/11/13 12:55:07;;;;;;;0.10;0.10;;;16.30;92.70;;;;;;5050245;28;20133;-67
2021/11/13 12:58:04;;;;;;;0.08;0.08;;;16.30;93.00;;;;;;5049558;28;20071;-68